sensor_id;sensor_type;location;lat;lon;timestamp;P1;durP1;ratioP1;P2;durP2;ratioP2
54921;SDS011;40824;45.116;21.296;2023-03-16T00:00:35;10.32;;;5.65;;
54921;SDS011;40824;45.116;21.296;2023-03-16T00:03:02;8.23;;;5.55;;
54921;SDS011;40824;45.116;21.296;2023-03-16T00:05:28;7.05;;;5.35;;
54921;SDS011;40824;45.116;21.296;2023-03-16T00:07:54;8.15;;;5.22;;
54921;SDS011;40824;45.116;21.296;2023-03-16T00:10:20;9.05;;;5.65;;
54921;SDS011;40824;45.116;21.296;2023-03-16T00:12:51;8.02;;;5.82;;
54921;SDS011;40824;45.116;21.296;2023-03-16T00:15:20;9.00;;;5.72;;
54921;SDS011;40824;45.116;21.296;2023-03-16T00:17:48;7.13;;;5.38;;
54921;SDS011;40824;45.116;21.296;2023-03-16T00:20:15;6.82;;;5.30;;
54921;SDS011;40824;45.116;21.296;2023-03-16T00:22:42;6.68;;;4.82;;
54921;SDS011;40824;45.116;21.296;2023-03-16T00:25:09;8.40;;;5.22;;
54921;SDS011;40824;45.116;21.296;2023-03-16T00:27:35;7.13;;;4.85;;
54921;SDS011;40824;45.116;21.296;2023-03-16T00:30:02;7.00;;;5.15;;
54921;SDS011;40824;45.116;21.296;2023-03-16T00:32:29;7.05;;;5.28;;
54921;SDS011;40824;45.116;21.296;2023-03-16T00:34:56;5.93;;;4.78;;
54921;SDS011;40824;45.116;21.296;2023-03-16T00:37:23;8.80;;;4.95;;
54921;SDS011;40824;45.116;21.296;2023-03-16T00:39:49;7.55;;;5.22;;
54921;SDS011;40824;45.116;21.296;2023-03-16T00:42:16;6.53;;;4.95;;
54921;SDS011;40824;45.116;21.296;2023-03-16T00:44:42;7.65;;;4.75;;
54921;SDS011;40824;45.116;21.296;2023-03-16T00:47:08;7.38;;;5.40;;
54921;SDS011;40824;45.116;21.296;2023-03-16T00:49:38;8.82;;;5.10;;
54921;SDS011;40824;45.116;21.296;2023-03-16T00:52:07;7.60;;;5.25;;
54921;SDS011;40824;45.116;21.296;2023-03-16T00:54:33;9.25;;;4.93;;
54921;SDS011;40824;45.116;21.296;2023-03-16T00:57:00;7.90;;;5.68;;
54921;SDS011;40824;45.116;21.296;2023-03-16T00:59:28;7.35;;;5.25;;
54921;SDS011;40824;45.116;21.296;2023-03-16T01:01:55;7.43;;;5.10;;
54921;SDS011;40824;45.116;21.296;2023-03-16T01:04:21;7.13;;;5.47;;
54921;SDS011;40824;45.116;21.296;2023-03-16T01:06:48;10.43;;;6.65;;
54921;SDS011;40824;45.116;21.296;2023-03-16T01:09:14;7.22;;;5.22;;
54921;SDS011;40824;45.116;21.296;2023-03-16T01:11:40;6.90;;;5.40;;
54921;SDS011;40824;45.116;21.296;2023-03-16T01:14:07;8.48;;;5.43;;
54921;SDS011;40824;45.116;21.296;2023-03-16T01:16:33;7.18;;;5.78;;
54921;SDS011;40824;45.116;21.296;2023-03-16T01:19:00;7.47;;;5.43;;
54921;SDS011;40824;45.116;21.296;2023-03-16T01:21:26;8.82;;;5.47;;
54921;SDS011;40824;45.116;21.296;2023-03-16T01:23:52;9.43;;;5.88;;
54921;SDS011;40824;45.116;21.296;2023-03-16T01:26:19;6.95;;;5.88;;
54921;SDS011;40824;45.116;21.296;2023-03-16T01:28:46;7.07;;;5.72;;
54921;SDS011;40824;45.116;21.296;2023-03-16T01:31:13;8.80;;;5.90;;
54921;SDS011;40824;45.116;21.296;2023-03-16T01:33:40;8.85;;;6.47;;
54921;SDS011;40824;45.116;21.296;2023-03-16T01:36:07;8.45;;;6.53;;
54921;SDS011;40824;45.116;21.296;2023-03-16T01:38:34;9.55;;;6.68;;
54921;SDS011;40824;45.116;21.296;2023-03-16T01:41:00;8.32;;;6.60;;
54921;SDS011;40824;45.116;21.296;2023-03-16T01:43:28;9.10;;;6.85;;
54921;SDS011;40824;45.116;21.296;2023-03-16T01:48:35;10.27;;;6.25;;
54921;SDS011;40824;45.116;21.296;2023-03-16T01:51:07;10.32;;;7.00;;
54921;SDS011;40824;45.116;21.296;2023-03-16T01:53:34;9.98;;;7.28;;
54921;SDS011;40824;45.116;21.296;2023-03-16T01:56:01;9.07;;;6.90;;
54921;SDS011;40824;45.116;21.296;2023-03-16T01:58:29;10.73;;;6.97;;
54921;SDS011;40824;45.116;21.296;2023-03-16T02:00:55;9.25;;;7.03;;
54921;SDS011;40824;45.116;21.296;2023-03-16T02:03:22;10.23;;;6.72;;
54921;SDS011;40824;45.116;21.296;2023-03-16T02:06:10;9.48;;;7.32;;
54921;SDS011;40824;45.116;21.296;2023-03-16T02:08:38;10.00;;;7.50;;
54921;SDS011;40824;45.116;21.296;2023-03-16T02:11:04;10.20;;;7.35;;
54921;SDS011;40824;45.116;21.296;2023-03-16T02:13:31;11.65;;;6.95;;
54921;SDS011;40824;45.116;21.296;2023-03-16T02:16:00;10.07;;;6.93;;
54921;SDS011;40824;45.116;21.296;2023-03-16T02:18:27;11.88;;;6.75;;
54921;SDS011;40824;45.116;21.296;2023-03-16T02:23:20;8.82;;;6.85;;
54921;SDS011;40824;45.116;21.296;2023-03-16T02:31:02;11.98;;;7.50;;
54921;SDS011;40824;45.116;21.296;2023-03-16T02:33:28;10.60;;;6.38;;
54921;SDS011;40824;45.116;21.296;2023-03-16T02:35:55;9.57;;;6.90;;
54921;SDS011;40824;45.116;21.296;2023-03-16T02:38:21;10.57;;;7.32;;
54921;SDS011;40824;45.116;21.296;2023-03-16T02:41:04;10.55;;;7.43;;
54921;SDS011;40824;45.116;21.296;2023-03-16T02:43:34;10.30;;;7.00;;
54921;SDS011;40824;45.116;21.296;2023-03-16T02:46:01;9.40;;;6.95;;
54921;SDS011;40824;45.116;21.296;2023-03-16T02:50:56;9.45;;;6.97;;
54921;SDS011;40824;45.116;21.296;2023-03-16T02:53:22;10.02;;;7.00;;
54921;SDS011;40824;45.116;21.296;2023-03-16T02:55:48;9.85;;;6.53;;
54921;SDS011;40824;45.116;21.296;2023-03-16T02:58:14;12.63;;;6.80;;
54921;SDS011;40824;45.116;21.296;2023-03-16T03:00:41;10.75;;;7.05;;
54921;SDS011;40824;45.116;21.296;2023-03-16T03:03:07;10.60;;;6.30;;
54921;SDS011;40824;45.116;21.296;2023-03-16T03:05:33;11.52;;;6.68;;
54921;SDS011;40824;45.116;21.296;2023-03-16T03:07:59;8.15;;;5.70;;
54921;SDS011;40824;45.116;21.296;2023-03-16T03:10:26;9.20;;;5.68;;
54921;SDS011;40824;45.116;21.296;2023-03-16T03:12:55;8.00;;;6.22;;
54921;SDS011;40824;45.116;21.296;2023-03-16T03:15:21;12.57;;;6.45;;
54921;SDS011;40824;45.116;21.296;2023-03-16T03:17:48;8.75;;;5.80;;
54921;SDS011;40824;45.116;21.296;2023-03-16T03:20:14;10.23;;;5.97;;
54921;SDS011;40824;45.116;21.296;2023-03-16T03:22:45;9.27;;;5.95;;
54921;SDS011;40824;45.116;21.296;2023-03-16T03:25:14;8.63;;;6.05;;
54921;SDS011;40824;45.116;21.296;2023-03-16T03:27:41;12.07;;;6.57;;
54921;SDS011;40824;45.116;21.296;2023-03-16T03:30:08;10.60;;;6.30;;
54921;SDS011;40824;45.116;21.296;2023-03-16T03:32:35;8.95;;;6.25;;
54921;SDS011;40824;45.116;21.296;2023-03-16T03:35:01;9.30;;;6.13;;
54921;SDS011;40824;45.116;21.296;2023-03-16T03:37:27;11.10;;;6.60;;
54921;SDS011;40824;45.116;21.296;2023-03-16T03:39:53;8.98;;;6.28;;
54921;SDS011;40824;45.116;21.296;2023-03-16T03:42:19;9.50;;;6.35;;
54921;SDS011;40824;45.116;21.296;2023-03-16T03:44:48;10.13;;;6.88;;
54921;SDS011;40824;45.116;21.296;2023-03-16T03:47:15;11.13;;;6.65;;
54921;SDS011;40824;45.116;21.296;2023-03-16T03:49:41;9.10;;;6.55;;
54921;SDS011;40824;45.116;21.296;2023-03-16T03:52:07;12.68;;;7.50;;
54921;SDS011;40824;45.116;21.296;2023-03-16T03:54:33;11.27;;;6.50;;
54921;SDS011;40824;45.116;21.296;2023-03-16T03:56:59;15.02;;;7.00;;
54921;SDS011;40824;45.116;21.296;2023-03-16T03:59:25;12.55;;;6.78;;
54921;SDS011;40824;45.116;21.296;2023-03-16T04:01:51;9.45;;;6.63;;
54921;SDS011;40824;45.116;21.296;2023-03-16T04:04:18;10.75;;;7.78;;
54921;SDS011;40824;45.116;21.296;2023-03-16T04:06:44;9.93;;;6.47;;
54921;SDS011;40824;45.116;21.296;2023-03-16T04:09:10;10.15;;;6.68;;
54921;SDS011;40824;45.116;21.296;2023-03-16T04:11:36;11.32;;;7.00;;
54921;SDS011;40824;45.116;21.296;2023-03-16T04:14:03;10.68;;;6.75;;
54921;SDS011;40824;45.116;21.296;2023-03-16T04:16:29;10.57;;;6.60;;
54921;SDS011;40824;45.116;21.296;2023-03-16T04:18:55;12.27;;;7.45;;
54921;SDS011;40824;45.116;21.296;2023-03-16T04:21:21;10.90;;;6.93;;
54921;SDS011;40824;45.116;21.296;2023-03-16T04:23:48;10.10;;;7.15;;
54921;SDS011;40824;45.116;21.296;2023-03-16T04:26:18;11.88;;;7.13;;
54921;SDS011;40824;45.116;21.296;2023-03-16T04:28:44;9.95;;;7.22;;
54921;SDS011;40824;45.116;21.296;2023-03-16T04:31:11;15.23;;;7.40;;
54921;SDS011;40824;45.116;21.296;2023-03-16T04:33:37;10.55;;;7.38;;
54921;SDS011;40824;45.116;21.296;2023-03-16T04:36:04;10.73;;;7.68;;
54921;SDS011;40824;45.116;21.296;2023-03-16T04:38:30;12.70;;;7.28;;
54921;SDS011;40824;45.116;21.296;2023-03-16T04:41:00;10.68;;;7.80;;
54921;SDS011;40824;45.116;21.296;2023-03-16T04:43:26;12.20;;;7.70;;
54921;SDS011;40824;45.116;21.296;2023-03-16T04:45:53;11.93;;;7.38;;
54921;SDS011;40824;45.116;21.296;2023-03-16T04:48:19;11.45;;;7.70;;
54921;SDS011;40824;45.116;21.296;2023-03-16T04:50:48;13.82;;;7.38;;
54921;SDS011;40824;45.116;21.296;2023-03-16T04:53:15;11.90;;;7.80;;
54921;SDS011;40824;45.116;21.296;2023-03-16T04:55:44;14.40;;;7.60;;
54921;SDS011;40824;45.116;21.296;2023-03-16T04:58:10;11.85;;;7.18;;
54921;SDS011;40824;45.116;21.296;2023-03-16T05:00:38;13.52;;;7.38;;
54921;SDS011;40824;45.116;21.296;2023-03-16T05:03:05;12.13;;;7.32;;
54921;SDS011;40824;45.116;21.296;2023-03-16T05:05:31;11.85;;;7.40;;
54921;SDS011;40824;45.116;21.296;2023-03-16T05:07:58;13.00;;;7.82;;
54921;SDS011;40824;45.116;21.296;2023-03-16T05:10:25;12.07;;;7.55;;
54921;SDS011;40824;45.116;21.296;2023-03-16T05:12:52;15.60;;;7.80;;
54921;SDS011;40824;45.116;21.296;2023-03-16T05:15:18;15.27;;;8.82;;
54921;SDS011;40824;45.116;21.296;2023-03-16T05:17:44;14.45;;;8.60;;
54921;SDS011;40824;45.116;21.296;2023-03-16T05:20:11;11.05;;;7.82;;
54921;SDS011;40824;45.116;21.296;2023-03-16T05:22:40;12.75;;;7.80;;
54921;SDS011;40824;45.116;21.296;2023-03-16T05:25:07;12.63;;;8.65;;
54921;SDS011;40824;45.116;21.296;2023-03-16T05:27:39;12.35;;;7.50;;
54921;SDS011;40824;45.116;21.296;2023-03-16T05:30:05;13.38;;;7.35;;
54921;SDS011;40824;45.116;21.296;2023-03-16T05:32:32;11.45;;;7.65;;
54921;SDS011;40824;45.116;21.296;2023-03-16T05:34:58;11.40;;;7.47;;
54921;SDS011;40824;45.116;21.296;2023-03-16T05:37:24;15.55;;;7.38;;
54921;SDS011;40824;45.116;21.296;2023-03-16T05:39:51;14.45;;;8.48;;
54921;SDS011;40824;45.116;21.296;2023-03-16T05:42:17;13.57;;;8.00;;
54921;SDS011;40824;45.116;21.296;2023-03-16T05:44:43;11.48;;;7.22;;
54921;SDS011;40824;45.116;21.296;2023-03-16T05:47:10;12.27;;;7.88;;
54921;SDS011;40824;45.116;21.296;2023-03-16T05:49:36;12.50;;;6.85;;
54921;SDS011;40824;45.116;21.296;2023-03-16T05:52:02;11.35;;;7.32;;
54921;SDS011;40824;45.116;21.296;2023-03-16T05:54:28;14.23;;;7.68;;
54921;SDS011;40824;45.116;21.296;2023-03-16T05:56:54;14.15;;;7.60;;
54921;SDS011;40824;45.116;21.296;2023-03-16T05:59:20;11.05;;;7.25;;
54921;SDS011;40824;45.116;21.296;2023-03-16T06:01:46;12.48;;;7.65;;
54921;SDS011;40824;45.116;21.296;2023-03-16T06:04:14;11.60;;;7.78;;
54921;SDS011;40824;45.116;21.296;2023-03-16T06:06:40;11.90;;;7.07;;
54921;SDS011;40824;45.116;21.296;2023-03-16T06:09:06;20.63;;;7.97;;
54921;SDS011;40824;45.116;21.296;2023-03-16T06:11:33;16.10;;;7.80;;
54921;SDS011;40824;45.116;21.296;2023-03-16T06:14:02;10.23;;;7.07;;
54921;SDS011;40824;45.116;21.296;2023-03-16T06:16:29;13.15;;;9.05;;
54921;SDS011;40824;45.116;21.296;2023-03-16T06:18:55;16.73;;;8.43;;
54921;SDS011;40824;45.116;21.296;2023-03-16T06:21:21;11.23;;;7.50;;
54921;SDS011;40824;45.116;21.296;2023-03-16T06:23:47;13.00;;;7.40;;
54921;SDS011;40824;45.116;21.296;2023-03-16T06:26:14;9.80;;;7.15;;
54921;SDS011;40824;45.116;21.296;2023-03-16T06:28:40;11.75;;;7.95;;
54921;SDS011;40824;45.116;21.296;2023-03-16T06:31:06;12.13;;;7.70;;
54921;SDS011;40824;45.116;21.296;2023-03-16T06:33:32;12.45;;;7.85;;
54921;SDS011;40824;45.116;21.296;2023-03-16T06:35:58;16.60;;;8.55;;
54921;SDS011;40824;45.116;21.296;2023-03-16T06:38:24;13.95;;;7.85;;
54921;SDS011;40824;45.116;21.296;2023-03-16T06:40:51;13.60;;;9.15;;
54921;SDS011;40824;45.116;21.296;2023-03-16T06:43:17;12.98;;;8.02;;
54921;SDS011;40824;45.116;21.296;2023-03-16T06:45:43;21.00;;;9.43;;
54921;SDS011;40824;45.116;21.296;2023-03-16T06:48:09;13.48;;;8.25;;
54921;SDS011;40824;45.116;21.296;2023-03-16T06:50:35;13.45;;;8.23;;
54921;SDS011;40824;45.116;21.296;2023-03-16T06:53:02;16.60;;;9.63;;
54921;SDS011;40824;45.116;21.296;2023-03-16T06:55:28;14.20;;;8.98;;
54921;SDS011;40824;45.116;21.296;2023-03-16T06:57:54;14.32;;;9.18;;
54921;SDS011;40824;45.116;21.296;2023-03-16T07:00:20;13.88;;;9.32;;
54921;SDS011;40824;45.116;21.296;2023-03-16T07:02:46;14.55;;;8.68;;
54921;SDS011;40824;45.116;21.296;2023-03-16T07:05:12;13.45;;;8.75;;
54921;SDS011;40824;45.116;21.296;2023-03-16T07:07:41;14.02;;;8.10;;
54921;SDS011;40824;45.116;21.296;2023-03-16T07:10:11;13.55;;;7.38;;
54921;SDS011;40824;45.116;21.296;2023-03-16T07:12:39;13.07;;;8.20;;
54921;SDS011;40824;45.116;21.296;2023-03-16T07:15:06;13.75;;;7.10;;
54921;SDS011;40824;45.116;21.296;2023-03-16T07:17:32;10.65;;;7.57;;
54921;SDS011;40824;45.116;21.296;2023-03-16T07:19:58;13.85;;;7.22;;
54921;SDS011;40824;45.116;21.296;2023-03-16T07:22:24;13.70;;;7.40;;
54921;SDS011;40824;45.116;21.296;2023-03-16T07:24:51;13.43;;;8.38;;
54921;SDS011;40824;45.116;21.296;2023-03-16T07:27:21;13.98;;;8.48;;
54921;SDS011;40824;45.116;21.296;2023-03-16T07:29:47;13.93;;;8.18;;
54921;SDS011;40824;45.116;21.296;2023-03-16T07:32:14;15.68;;;8.70;;
54921;SDS011;40824;45.116;21.296;2023-03-16T07:34:40;11.80;;;8.00;;
54921;SDS011;40824;45.116;21.296;2023-03-16T07:37:08;13.27;;;7.70;;
54921;SDS011;40824;45.116;21.296;2023-03-16T07:39:35;11.95;;;7.40;;
54921;SDS011;40824;45.116;21.296;2023-03-16T07:42:01;14.20;;;7.82;;
54921;SDS011;40824;45.116;21.296;2023-03-16T07:44:27;13.30;;;7.53;;
54921;SDS011;40824;45.116;21.296;2023-03-16T07:46:53;12.90;;;7.68;;
54921;SDS011;40824;45.116;21.296;2023-03-16T07:49:19;13.93;;;7.57;;
54921;SDS011;40824;45.116;21.296;2023-03-16T07:51:45;16.05;;;8.07;;
54921;SDS011;40824;45.116;21.296;2023-03-16T07:54:12;12.93;;;7.55;;
54921;SDS011;40824;45.116;21.296;2023-03-16T07:56:38;13.20;;;7.47;;
54921;SDS011;40824;45.116;21.296;2023-03-16T07:59:04;15.63;;;8.45;;
54921;SDS011;40824;45.116;21.296;2023-03-16T08:01:30;12.25;;;7.97;;
54921;SDS011;40824;45.116;21.296;2023-03-16T08:03:56;13.88;;;8.38;;
54921;SDS011;40824;45.116;21.296;2023-03-16T08:06:22;10.75;;;7.50;;
54921;SDS011;40824;45.116;21.296;2023-03-16T08:08:49;14.77;;;8.45;;
54921;SDS011;40824;45.116;21.296;2023-03-16T08:11:16;11.98;;;8.25;;
54921;SDS011;40824;45.116;21.296;2023-03-16T08:13:48;17.58;;;9.20;;
54921;SDS011;40824;45.116;21.296;2023-03-16T08:16:18;13.43;;;8.52;;
54921;SDS011;40824;45.116;21.296;2023-03-16T08:18:44;15.90;;;8.95;;
54921;SDS011;40824;45.116;21.296;2023-03-16T08:21:10;15.77;;;9.43;;
54921;SDS011;40824;45.116;21.296;2023-03-16T08:23:36;15.05;;;8.80;;
54921;SDS011;40824;45.116;21.296;2023-03-16T08:26:02;24.92;;;9.45;;
54921;SDS011;40824;45.116;21.296;2023-03-16T08:28:32;11.35;;;7.70;;
54921;SDS011;40824;45.116;21.296;2023-03-16T08:30:59;13.77;;;9.40;;
54921;SDS011;40824;45.116;21.296;2023-03-16T08:33:25;20.02;;;11.05;;
54921;SDS011;40824;45.116;21.296;2023-03-16T08:35:52;13.38;;;8.77;;
54921;SDS011;40824;45.116;21.296;2023-03-16T08:38:18;17.23;;;12.02;;
54921;SDS011;40824;45.116;21.296;2023-03-16T08:40:44;15.82;;;8.35;;
54921;SDS011;40824;45.116;21.296;2023-03-16T08:43:14;14.15;;;9.60;;
54921;SDS011;40824;45.116;21.296;2023-03-16T08:45:43;15.43;;;8.45;;
54921;SDS011;40824;45.116;21.296;2023-03-16T08:48:09;14.70;;;9.43;;
54921;SDS011;40824;45.116;21.296;2023-03-16T08:50:38;16.25;;;10.98;;
54921;SDS011;40824;45.116;21.296;2023-03-16T08:53:04;37.88;;;24.10;;
54921;SDS011;40824;45.116;21.296;2023-03-16T08:55:30;14.13;;;8.85;;
54921;SDS011;40824;45.116;21.296;2023-03-16T08:57:56;39.58;;;22.27;;
54921;SDS011;40824;45.116;21.296;2023-03-16T09:00:24;20.42;;;11.25;;
54921;SDS011;40824;45.116;21.296;2023-03-16T09:02:50;19.38;;;12.93;;
54921;SDS011;40824;45.116;21.296;2023-03-16T09:05:16;26.35;;;15.93;;
54921;SDS011;40824;45.116;21.296;2023-03-16T09:07:42;16.30;;;11.85;;
54921;SDS011;40824;45.116;21.296;2023-03-16T09:10:11;19.73;;;11.98;;
54921;SDS011;40824;45.116;21.296;2023-03-16T09:12:40;15.02;;;10.07;;
54921;SDS011;40824;45.116;21.296;2023-03-16T09:15:07;12.75;;;9.55;;
54921;SDS011;40824;45.116;21.296;2023-03-16T09:17:34;11.05;;;7.80;;
54921;SDS011;40824;45.116;21.296;2023-03-16T09:20:01;13.90;;;9.10;;
54921;SDS011;40824;45.116;21.296;2023-03-16T09:22:27;10.65;;;7.72;;
54921;SDS011;40824;45.116;21.296;2023-03-16T09:24:53;9.77;;;7.03;;
54921;SDS011;40824;45.116;21.296;2023-03-16T09:27:19;48.10;;;28.52;;
54921;SDS011;40824;45.116;21.296;2023-03-16T09:29:46;47.75;;;28.88;;
54921;SDS011;40824;45.116;21.296;2023-03-16T09:32:13;20.08;;;13.02;;
54921;SDS011;40824;45.116;21.296;2023-03-16T09:34:40;23.45;;;15.10;;
54921;SDS011;40824;45.116;21.296;2023-03-16T09:37:06;23.45;;;14.15;;
54921;SDS011;40824;45.116;21.296;2023-03-16T09:39:35;21.38;;;13.35;;
54921;SDS011;40824;45.116;21.296;2023-03-16T09:42:03;15.15;;;11.00;;
54921;SDS011;40824;45.116;21.296;2023-03-16T09:47:32;14.43;;;10.70;;
54921;SDS011;40824;45.116;21.296;2023-03-16T09:50:01;15.98;;;9.35;;
54921;SDS011;40824;45.116;21.296;2023-03-16T09:57:38;14.18;;;8.90;;
54921;SDS011;40824;45.116;21.296;2023-03-16T10:00:21;10.10;;;7.03;;
54921;SDS011;40824;45.116;21.296;2023-03-16T10:05:22;13.43;;;8.43;;
54921;SDS011;40824;45.116;21.296;2023-03-16T10:15:57;16.27;;;9.00;;
54921;SDS011;40824;45.116;21.296;2023-03-16T10:18:30;13.40;;;9.45;;
54921;SDS011;40824;45.116;21.296;2023-03-16T10:20:58;15.27;;;7.38;;
54921;SDS011;40824;45.116;21.296;2023-03-16T10:23:25;11.32;;;7.40;;
54921;SDS011;40824;45.116;21.296;2023-03-16T10:25:53;9.65;;;6.43;;
54921;SDS011;40824;45.116;21.296;2023-03-16T10:28:23;10.23;;;7.18;;
54921;SDS011;40824;45.116;21.296;2023-03-16T10:30:51;11.32;;;7.65;;
54921;SDS011;40824;45.116;21.296;2023-03-16T10:43:40;41.78;;;27.30;;
54921;SDS011;40824;45.116;21.296;2023-03-16T10:46:08;26.45;;;17.00;;
54921;SDS011;40824;45.116;21.296;2023-03-16T10:48:36;11.70;;;8.18;;
54921;SDS011;40824;45.116;21.296;2023-03-16T10:51:07;17.55;;;9.02;;
54921;SDS011;40824;45.116;21.296;2023-03-16T10:53:36;17.58;;;9.35;;
54921;SDS011;40824;45.116;21.296;2023-03-16T10:56:11;12.50;;;8.82;;
54921;SDS011;40824;45.116;21.296;2023-03-16T10:58:40;16.95;;;8.07;;
54921;SDS011;40824;45.116;21.296;2023-03-16T11:01:10;13.20;;;8.30;;
54921;SDS011;40824;45.116;21.296;2023-03-16T11:03:38;14.85;;;8.38;;
54921;SDS011;40824;45.116;21.296;2023-03-16T11:06:06;11.38;;;7.00;;
54921;SDS011;40824;45.116;21.296;2023-03-16T11:08:35;13.20;;;7.18;;
54921;SDS011;40824;45.116;21.296;2023-03-16T11:11:09;15.23;;;8.13;;
54921;SDS011;40824;45.116;21.296;2023-03-16T11:13:37;14.32;;;7.93;;
54921;SDS011;40824;45.116;21.296;2023-03-16T11:18:44;12.13;;;7.75;;
54921;SDS011;40824;45.116;21.296;2023-03-16T11:21:21;11.57;;;7.30;;
54921;SDS011;40824;45.116;21.296;2023-03-16T11:23:51;13.73;;;8.18;;
54921;SDS011;40824;45.116;21.296;2023-03-16T11:26:22;14.00;;;7.85;;
54921;SDS011;40824;45.116;21.296;2023-03-16T11:28:55;11.10;;;6.78;;
54921;SDS011;40824;45.116;21.296;2023-03-16T11:31:46;9.93;;;7.18;;
54921;SDS011;40824;45.116;21.296;2023-03-16T11:34:15;14.55;;;6.78;;
54921;SDS011;40824;45.116;21.296;2023-03-16T11:44:41;13.32;;;8.43;;
54921;SDS011;40824;45.116;21.296;2023-03-16T11:49:59;10.35;;;6.72;;
54921;SDS011;40824;45.116;21.296;2023-03-16T11:55:00;14.98;;;8.25;;
54921;SDS011;40824;45.116;21.296;2023-03-16T12:00:16;16.73;;;8.68;;
54921;SDS011;40824;45.116;21.296;2023-03-16T12:17:55;14.55;;;7.20;;
54921;SDS011;40824;45.116;21.296;2023-03-16T12:20:23;11.93;;;7.32;;
54921;SDS011;40824;45.116;21.296;2023-03-16T12:22:53;11.45;;;7.20;;
54921;SDS011;40824;45.116;21.296;2023-03-16T12:25:21;11.60;;;7.53;;
54921;SDS011;40824;45.116;21.296;2023-03-16T12:27:50;18.17;;;6.80;;
54921;SDS011;40824;45.116;21.296;2023-03-16T12:34:06;12.88;;;6.45;;
54921;SDS011;40824;45.116;21.296;2023-03-16T12:38:51;7.97;;;5.70;;
54921;SDS011;40824;45.116;21.296;2023-03-16T12:44:00;11.15;;;5.80;;
54921;SDS011;40824;45.116;21.296;2023-03-16T12:48:58;12.05;;;6.70;;
54921;SDS011;40824;45.116;21.296;2023-03-16T12:51:32;11.48;;;6.25;;
54921;SDS011;40824;45.116;21.296;2023-03-16T12:53:58;8.23;;;5.90;;
54921;SDS011;40824;45.116;21.296;2023-03-16T12:56:29;11.20;;;7.28;;
54921;SDS011;40824;45.116;21.296;2023-03-16T12:58:57;10.15;;;7.47;;
54921;SDS011;40824;45.116;21.296;2023-03-16T13:01:27;13.77;;;7.20;;
54921;SDS011;40824;45.116;21.296;2023-03-16T13:03:58;13.27;;;7.20;;
54921;SDS011;40824;45.116;21.296;2023-03-16T13:06:28;16.25;;;8.68;;
54921;SDS011;40824;45.116;21.296;2023-03-16T13:08:56;13.35;;;8.77;;
54921;SDS011;40824;45.116;21.296;2023-03-16T13:11:23;11.82;;;9.10;;
54921;SDS011;40824;45.116;21.296;2023-03-16T13:17:02;13.00;;;7.72;;
54921;SDS011;40824;45.116;21.296;2023-03-16T13:19:58;10.05;;;6.90;;
54921;SDS011;40824;45.116;21.296;2023-03-16T13:22:40;12.82;;;7.60;;
54921;SDS011;40824;45.116;21.296;2023-03-16T13:27:55;9.75;;;5.88;;
54921;SDS011;40824;45.116;21.296;2023-03-16T13:32:58;9.50;;;6.53;;
54921;SDS011;40824;45.116;21.296;2023-03-16T13:35:26;10.38;;;5.75;;
54921;SDS011;40824;45.116;21.296;2023-03-16T13:37:52;12.60;;;8.23;;
54921;SDS011;40824;45.116;21.296;2023-03-16T13:40:23;14.10;;;8.68;;
54921;SDS011;40824;45.116;21.296;2023-03-16T13:42:51;12.13;;;7.63;;
54921;SDS011;40824;45.116;21.296;2023-03-16T13:45:22;21.65;;;14.82;;
54921;SDS011;40824;45.116;21.296;2023-03-16T13:47:49;15.85;;;10.73;;
54921;SDS011;40824;45.116;21.296;2023-03-16T13:50:16;12.48;;;9.40;;
54921;SDS011;40824;45.116;21.296;2023-03-16T13:52:55;21.10;;;14.23;;
54921;SDS011;40824;45.116;21.296;2023-03-16T13:55:25;21.65;;;15.70;;
54921;SDS011;40824;45.116;21.296;2023-03-16T13:57:52;26.27;;;17.08;;
54921;SDS011;40824;45.116;21.296;2023-03-16T14:02:45;60.20;;;36.35;;
54921;SDS011;40824;45.116;21.296;2023-03-16T14:05:15;41.75;;;28.35;;
54921;SDS011;40824;45.116;21.296;2023-03-16T14:07:44;36.85;;;26.10;;
54921;SDS011;40824;45.116;21.296;2023-03-16T14:10:11;26.35;;;16.10;;
54921;SDS011;40824;45.116;21.296;2023-03-16T14:12:49;39.28;;;25.20;;
54921;SDS011;40824;45.116;21.296;2023-03-16T14:15:15;87.57;;;49.90;;
54921;SDS011;40824;45.116;21.296;2023-03-16T14:17:42;122.82;;;77.15;;
54921;SDS011;40824;45.116;21.296;2023-03-16T14:20:10;32.53;;;20.33;;
54921;SDS011;40824;45.116;21.296;2023-03-16T14:22:42;45.53;;;31.30;;
54921;SDS011;40824;45.116;21.296;2023-03-16T14:25:16;20.50;;;12.68;;
54921;SDS011;40824;45.116;21.296;2023-03-16T14:27:46;17.67;;;10.55;;
54921;SDS011;40824;45.116;21.296;2023-03-16T14:32:52;20.80;;;13.80;;
54921;SDS011;40824;45.116;21.296;2023-03-16T14:35:19;16.90;;;11.02;;
54921;SDS011;40824;45.116;21.296;2023-03-16T14:37:45;17.60;;;10.43;;
54921;SDS011;40824;45.116;21.296;2023-03-16T14:40:28;20.17;;;12.90;;
54921;SDS011;40824;45.116;21.296;2023-03-16T14:43:04;23.67;;;15.05;;
54921;SDS011;40824;45.116;21.296;2023-03-16T14:45:34;21.85;;;13.50;;
54921;SDS011;40824;45.116;21.296;2023-03-16T14:48:05;16.13;;;10.45;;
54921;SDS011;40824;45.116;21.296;2023-03-16T14:50:34;17.08;;;12.65;;
54921;SDS011;40824;45.116;21.296;2023-03-16T14:53:01;22.30;;;14.43;;
54921;SDS011;40824;45.116;21.296;2023-03-16T14:55:28;17.92;;;11.32;;
54921;SDS011;40824;45.116;21.296;2023-03-16T14:57:54;28.30;;;19.13;;
54921;SDS011;40824;45.116;21.296;2023-03-16T15:00:20;23.88;;;15.05;;
54921;SDS011;40824;45.116;21.296;2023-03-16T15:03:20;20.83;;;11.65;;
54921;SDS011;40824;45.116;21.296;2023-03-16T15:05:39;31.60;;;20.23;;
54921;SDS011;40824;45.116;21.296;2023-03-16T15:08:10;30.13;;;19.33;;
54921;SDS011;40824;45.116;21.296;2023-03-16T15:10:37;20.90;;;14.70;;
54921;SDS011;40824;45.116;21.296;2023-03-16T15:13:10;17.85;;;10.63;;
54921;SDS011;40824;45.116;21.296;2023-03-16T15:16:08;16.98;;;10.80;;
54921;SDS011;40824;45.116;21.296;2023-03-16T15:18:35;23.55;;;15.63;;
54921;SDS011;40824;45.116;21.296;2023-03-16T15:21:03;17.83;;;10.32;;
54921;SDS011;40824;45.116;21.296;2023-03-16T15:23:38;16.98;;;10.02;;
54921;SDS011;40824;45.116;21.296;2023-03-16T15:26:07;16.83;;;11.45;;
54921;SDS011;40824;45.116;21.296;2023-03-16T15:28:37;19.98;;;10.63;;
54921;SDS011;40824;45.116;21.296;2023-03-16T15:31:03;19.80;;;12.40;;
54921;SDS011;40824;45.116;21.296;2023-03-16T15:33:30;18.08;;;11.50;;
54921;SDS011;40824;45.116;21.296;2023-03-16T15:35:57;23.50;;;14.95;;
54921;SDS011;40824;45.116;21.296;2023-03-16T15:38:29;19.20;;;12.82;;
54921;SDS011;40824;45.116;21.296;2023-03-16T15:40:57;19.42;;;13.95;;
54921;SDS011;40824;45.116;21.296;2023-03-16T15:43:25;23.88;;;18.30;;
54921;SDS011;40824;45.116;21.296;2023-03-16T15:45:56;13.85;;;11.05;;
54921;SDS011;40824;45.116;21.296;2023-03-16T15:48:23;14.10;;;9.82;;
54921;SDS011;40824;45.116;21.296;2023-03-16T15:53:57;16.08;;;11.15;;
54921;SDS011;40824;45.116;21.296;2023-03-16T15:56:27;13.43;;;9.35;;
54921;SDS011;40824;45.116;21.296;2023-03-16T15:58:57;14.98;;;9.77;;
54921;SDS011;40824;45.116;21.296;2023-03-16T16:01:27;14.50;;;8.82;;
54921;SDS011;40824;45.116;21.296;2023-03-16T16:03:58;16.40;;;9.15;;
54921;SDS011;40824;45.116;21.296;2023-03-16T16:06:25;20.50;;;10.00;;
54921;SDS011;40824;45.116;21.296;2023-03-16T16:08:52;16.40;;;10.23;;